sensor_id;sensor_type;location;lat;lon;timestamp;P1;durP1;ratioP1;P2;durP2;ratioP2
71771;SDS011;59606;52.138;5.424;2022-07-18T00:01:54;10.30;;;4.68;;
71771;SDS011;59606;52.138;5.424;2022-07-18T00:04:22;8.40;;;4.15;;
71771;SDS011;59606;52.138;5.424;2022-07-18T00:06:49;9.65;;;4.18;;
71771;SDS011;59606;52.138;5.424;2022-07-18T00:09:15;9.10;;;4.77;;
71771;SDS011;59606;52.138;5.424;2022-07-18T00:11:42;9.40;;;4.55;;
71771;SDS011;59606;52.138;5.424;2022-07-18T00:14:08;9.40;;;4.75;;
71771;SDS011;59606;52.138;5.424;2022-07-18T00:16:35;10.95;;;4.20;;
71771;SDS011;59606;52.138;5.424;2022-07-18T00:19:02;8.38;;;4.32;;
71771;SDS011;59606;52.138;5.424;2022-07-18T00:21:29;9.63;;;4.40;;
71771;SDS011;59606;52.138;5.424;2022-07-18T00:24:00;11.65;;;4.07;;
71771;SDS011;59606;52.138;5.424;2022-07-18T00:26:28;9.90;;;4.40;;
71771;SDS011;59606;52.138;5.424;2022-07-18T00:28:55;8.85;;;3.97;;
71771;SDS011;59606;52.138;5.424;2022-07-18T00:31:22;9.40;;;4.10;;
71771;SDS011;59606;52.138;5.424;2022-07-18T00:33:49;8.53;;;3.77;;
71771;SDS011;59606;52.138;5.424;2022-07-18T00:36:15;8.07;;;4.57;;
71771;SDS011;59606;52.138;5.424;2022-07-18T00:38:42;8.88;;;4.28;;
71771;SDS011;59606;52.138;5.424;2022-07-18T00:41:08;12.32;;;4.72;;
71771;SDS011;59606;52.138;5.424;2022-07-18T00:43:35;10.70;;;5.10;;
71771;SDS011;59606;52.138;5.424;2022-07-18T00:46:01;8.77;;;4.03;;
71771;SDS011;59606;52.138;5.424;2022-07-18T00:48:28;8.43;;;4.63;;
71771;SDS011;59606;52.138;5.424;2022-07-18T00:50:54;16.95;;;4.63;;
71771;SDS011;59606;52.138;5.424;2022-07-18T00:53:21;14.15;;;4.18;;
71771;SDS011;59606;52.138;5.424;2022-07-18T00:55:49;11.50;;;4.68;;
71771;SDS011;59606;52.138;5.424;2022-07-18T00:58:18;9.13;;;4.23;;
71771;SDS011;59606;52.138;5.424;2022-07-18T01:00:45;11.50;;;4.78;;
71771;SDS011;59606;52.138;5.424;2022-07-18T01:03:30;10.40;;;4.97;;
71771;SDS011;59606;52.138;5.424;2022-07-18T01:05:56;9.60;;;4.57;;
71771;SDS011;59606;52.138;5.424;2022-07-18T01:08:25;10.57;;;4.95;;
71771;SDS011;59606;52.138;5.424;2022-07-18T01:10:52;10.63;;;4.63;;
71771;SDS011;59606;52.138;5.424;2022-07-18T01:13:20;8.65;;;4.43;;
71771;SDS011;59606;52.138;5.424;2022-07-18T01:15:47;11.07;;;4.38;;
71771;SDS011;59606;52.138;5.424;2022-07-18T01:18:13;10.98;;;5.00;;
71771;SDS011;59606;52.138;5.424;2022-07-18T01:20:40;8.80;;;4.78;;
71771;SDS011;59606;52.138;5.424;2022-07-18T01:23:06;12.30;;;4.20;;
71771;SDS011;59606;52.138;5.424;2022-07-18T01:25:33;10.07;;;5.35;;
71771;SDS011;59606;52.138;5.424;2022-07-18T01:28:00;8.43;;;4.55;;
71771;SDS011;59606;52.138;5.424;2022-07-18T01:30:26;9.07;;;4.45;;
71771;SDS011;59606;52.138;5.424;2022-07-18T01:32:56;11.32;;;4.95;;
71771;SDS011;59606;52.138;5.424;2022-07-18T01:35:25;7.87;;;4.40;;
71771;SDS011;59606;52.138;5.424;2022-07-18T01:37:54;8.90;;;4.47;;
71771;SDS011;59606;52.138;5.424;2022-07-18T01:40:22;9.07;;;4.43;;
71771;SDS011;59606;52.138;5.424;2022-07-18T01:42:50;10.98;;;5.00;;
71771;SDS011;59606;52.138;5.424;2022-07-18T01:45:17;9.38;;;4.53;;
71771;SDS011;59606;52.138;5.424;2022-07-18T01:47:44;10.87;;;4.60;;
71771;SDS011;59606;52.138;5.424;2022-07-18T01:50:11;12.80;;;5.05;;
71771;SDS011;59606;52.138;5.424;2022-07-18T01:52:39;10.48;;;4.65;;
71771;SDS011;59606;52.138;5.424;2022-07-18T01:55:06;10.18;;;5.15;;
71771;SDS011;59606;52.138;5.424;2022-07-18T01:57:34;7.97;;;4.22;;
71771;SDS011;59606;52.138;5.424;2022-07-18T02:00:03;8.17;;;4.07;;
71771;SDS011;59606;52.138;5.424;2022-07-18T02:02:31;11.65;;;4.22;;
71771;SDS011;59606;52.138;5.424;2022-07-18T02:04:57;8.48;;;4.30;;
71771;SDS011;59606;52.138;5.424;2022-07-18T02:07:28;9.50;;;4.25;;
71771;SDS011;59606;52.138;5.424;2022-07-18T02:09:56;9.15;;;4.55;;
71771;SDS011;59606;52.138;5.424;2022-07-18T02:12:23;9.53;;;4.83;;
71771;SDS011;59606;52.138;5.424;2022-07-18T02:14:50;11.80;;;4.53;;
71771;SDS011;59606;52.138;5.424;2022-07-18T02:17:17;11.57;;;4.32;;
71771;SDS011;59606;52.138;5.424;2022-07-18T02:19:45;8.77;;;4.18;;
71771;SDS011;59606;52.138;5.424;2022-07-18T02:22:12;8.82;;;4.65;;
71771;SDS011;59606;52.138;5.424;2022-07-18T02:24:39;10.83;;;4.60;;
71771;SDS011;59606;52.138;5.424;2022-07-18T02:27:05;10.25;;;4.78;;
71771;SDS011;59606;52.138;5.424;2022-07-18T02:29:33;7.97;;;3.78;;
71771;SDS011;59606;52.138;5.424;2022-07-18T02:31:59;11.07;;;5.00;;
71771;SDS011;59606;52.138;5.424;2022-07-18T02:34:26;9.52;;;4.45;;
71771;SDS011;59606;52.138;5.424;2022-07-18T02:36:52;9.30;;;4.63;;
71771;SDS011;59606;52.138;5.424;2022-07-18T02:39:19;9.68;;;4.30;;
71771;SDS011;59606;52.138;5.424;2022-07-18T02:41:46;9.50;;;4.43;;
71771;SDS011;59606;52.138;5.424;2022-07-18T02:44:13;10.45;;;4.57;;
71771;SDS011;59606;52.138;5.424;2022-07-18T02:46:40;9.85;;;4.82;;
71771;SDS011;59606;52.138;5.424;2022-07-18T02:49:07;10.30;;;4.77;;
71771;SDS011;59606;52.138;5.424;2022-07-18T02:51:33;9.07;;;4.22;;
71771;SDS011;59606;52.138;5.424;2022-07-18T02:54:00;9.18;;;4.20;;
71771;SDS011;59606;52.138;5.424;2022-07-18T02:56:27;10.23;;;4.55;;
71771;SDS011;59606;52.138;5.424;2022-07-18T02:58:54;10.88;;;4.35;;
71771;SDS011;59606;52.138;5.424;2022-07-18T03:01:20;17.67;;;5.00;;
71771;SDS011;59606;52.138;5.424;2022-07-18T03:03:47;9.90;;;4.85;;
71771;SDS011;59606;52.138;5.424;2022-07-18T03:06:14;11.30;;;4.57;;
71771;SDS011;59606;52.138;5.424;2022-07-18T03:08:40;9.45;;;4.13;;
71771;SDS011;59606;52.138;5.424;2022-07-18T03:11:07;11.85;;;3.97;;
71771;SDS011;59606;52.138;5.424;2022-07-18T03:13:33;10.60;;;4.20;;
71771;SDS011;59606;52.138;5.424;2022-07-18T03:16:00;11.27;;;4.65;;
71771;SDS011;59606;52.138;5.424;2022-07-18T03:18:27;10.52;;;4.32;;
71771;SDS011;59606;52.138;5.424;2022-07-18T03:20:53;10.27;;;4.50;;
71771;SDS011;59606;52.138;5.424;2022-07-18T03:23:20;8.55;;;4.07;;
71771;SDS011;59606;52.138;5.424;2022-07-18T03:25:47;8.97;;;4.63;;
71771;SDS011;59606;52.138;5.424;2022-07-18T03:28:13;9.30;;;4.53;;
71771;SDS011;59606;52.138;5.424;2022-07-18T03:30:40;11.02;;;4.90;;
71771;SDS011;59606;52.138;5.424;2022-07-18T03:33:07;9.57;;;4.38;;
71771;SDS011;59606;52.138;5.424;2022-07-18T03:35:33;8.52;;;4.32;;
71771;SDS011;59606;52.138;5.424;2022-07-18T03:38:00;9.67;;;4.77;;
71771;SDS011;59606;52.138;5.424;2022-07-18T03:40:26;10.20;;;4.75;;
71771;SDS011;59606;52.138;5.424;2022-07-18T03:42:53;10.20;;;4.82;;
71771;SDS011;59606;52.138;5.424;2022-07-18T03:45:20;9.73;;;4.45;;
71771;SDS011;59606;52.138;5.424;2022-07-18T03:47:46;8.85;;;4.57;;
71771;SDS011;59606;52.138;5.424;2022-07-18T03:50:13;9.37;;;4.63;;
71771;SDS011;59606;52.138;5.424;2022-07-18T03:52:39;9.38;;;4.82;;
71771;SDS011;59606;52.138;5.424;2022-07-18T03:55:06;12.20;;;5.30;;
71771;SDS011;59606;52.138;5.424;2022-07-18T03:57:35;10.20;;;4.88;;
71771;SDS011;59606;52.138;5.424;2022-07-18T04:00:02;12.23;;;4.95;;
71771;SDS011;59606;52.138;5.424;2022-07-18T04:02:31;10.23;;;4.93;;
71771;SDS011;59606;52.138;5.424;2022-07-18T04:04:57;11.85;;;5.07;;
71771;SDS011;59606;52.138;5.424;2022-07-18T04:07:24;11.02;;;5.07;;
71771;SDS011;59606;52.138;5.424;2022-07-18T04:09:50;12.65;;;5.28;;
71771;SDS011;59606;52.138;5.424;2022-07-18T04:12:19;11.13;;;4.95;;
71771;SDS011;59606;52.138;5.424;2022-07-18T04:14:46;11.60;;;5.00;;
71771;SDS011;59606;52.138;5.424;2022-07-18T04:17:12;9.88;;;5.07;;
71771;SDS011;59606;52.138;5.424;2022-07-18T04:19:39;11.07;;;5.30;;
71771;SDS011;59606;52.138;5.424;2022-07-18T04:22:05;12.60;;;5.38;;
71771;SDS011;59606;52.138;5.424;2022-07-18T04:24:32;11.88;;;5.68;;
71771;SDS011;59606;52.138;5.424;2022-07-18T04:26:58;10.40;;;4.97;;
71771;SDS011;59606;52.138;5.424;2022-07-18T04:29:25;7.97;;;4.57;;
71771;SDS011;59606;52.138;5.424;2022-07-18T04:31:52;10.85;;;5.03;;
71771;SDS011;59606;52.138;5.424;2022-07-18T04:34:18;14.68;;;5.00;;
71771;SDS011;59606;52.138;5.424;2022-07-18T04:36:45;11.27;;;5.53;;
71771;SDS011;59606;52.138;5.424;2022-07-18T04:39:11;11.57;;;5.43;;
71771;SDS011;59606;52.138;5.424;2022-07-18T04:41:38;12.93;;;5.18;;
71771;SDS011;59606;52.138;5.424;2022-07-18T04:44:05;11.73;;;4.80;;
71771;SDS011;59606;52.138;5.424;2022-07-18T04:46:31;14.57;;;6.03;;
71771;SDS011;59606;52.138;5.424;2022-07-18T04:48:58;9.18;;;5.05;;
71771;SDS011;59606;52.138;5.424;2022-07-18T04:51:25;9.73;;;5.30;;
71771;SDS011;59606;52.138;5.424;2022-07-18T04:53:51;12.75;;;5.70;;
71771;SDS011;59606;52.138;5.424;2022-07-18T04:56:21;13.43;;;5.60;;
71771;SDS011;59606;52.138;5.424;2022-07-18T04:58:48;11.90;;;5.25;;
71771;SDS011;59606;52.138;5.424;2022-07-18T05:01:14;11.95;;;5.20;;
71771;SDS011;59606;52.138;5.424;2022-07-18T05:03:41;12.00;;;5.47;;
71771;SDS011;59606;52.138;5.424;2022-07-18T05:06:08;13.82;;;5.72;;
71771;SDS011;59606;52.138;5.424;2022-07-18T05:08:34;13.75;;;5.38;;
71771;SDS011;59606;52.138;5.424;2022-07-18T05:11:00;9.48;;;5.30;;
71771;SDS011;59606;52.138;5.424;2022-07-18T05:13:27;11.73;;;5.57;;
71771;SDS011;59606;52.138;5.424;2022-07-18T05:15:54;11.07;;;5.90;;
71771;SDS011;59606;52.138;5.424;2022-07-18T05:18:20;14.90;;;6.20;;
71771;SDS011;59606;52.138;5.424;2022-07-18T05:20:47;10.68;;;5.90;;
71771;SDS011;59606;52.138;5.424;2022-07-18T05:23:14;15.32;;;6.22;;
71771;SDS011;59606;52.138;5.424;2022-07-18T05:25:41;11.40;;;5.30;;
71771;SDS011;59606;52.138;5.424;2022-07-18T05:28:08;14.03;;;5.47;;
71771;SDS011;59606;52.138;5.424;2022-07-18T05:30:34;13.43;;;6.07;;
71771;SDS011;59606;52.138;5.424;2022-07-18T05:33:01;13.15;;;6.20;;
71771;SDS011;59606;52.138;5.424;2022-07-18T05:35:29;13.60;;;6.00;;
71771;SDS011;59606;52.138;5.424;2022-07-18T05:37:55;12.73;;;5.60;;
71771;SDS011;59606;52.138;5.424;2022-07-18T05:40:22;12.50;;;6.00;;
71771;SDS011;59606;52.138;5.424;2022-07-18T05:42:48;10.65;;;5.47;;
71771;SDS011;59606;52.138;5.424;2022-07-18T05:45:20;10.68;;;5.88;;
71771;SDS011;59606;52.138;5.424;2022-07-18T05:47:47;11.07;;;5.45;;
71771;SDS011;59606;52.138;5.424;2022-07-18T05:50:14;9.88;;;5.47;;
71771;SDS011;59606;52.138;5.424;2022-07-18T05:52:40;11.50;;;5.30;;
71771;SDS011;59606;52.138;5.424;2022-07-18T05:55:07;10.60;;;5.28;;
71771;SDS011;59606;52.138;5.424;2022-07-18T05:57:34;9.77;;;4.50;;
71771;SDS011;59606;52.138;5.424;2022-07-18T06:00:05;10.10;;;4.70;;
71771;SDS011;59606;52.138;5.424;2022-07-18T06:02:34;9.15;;;4.97;;
71771;SDS011;59606;52.138;5.424;2022-07-18T06:05:01;10.43;;;4.37;;
71771;SDS011;59606;52.138;5.424;2022-07-18T06:07:48;11.43;;;4.45;;
71771;SDS011;59606;52.138;5.424;2022-07-18T06:10:14;12.52;;;4.57;;
71771;SDS011;59606;52.138;5.424;2022-07-18T06:12:41;10.32;;;4.53;;
71771;SDS011;59606;52.138;5.424;2022-07-18T06:15:08;9.68;;;4.40;;
71771;SDS011;59606;52.138;5.424;2022-07-18T06:17:35;12.50;;;4.53;;
71771;SDS011;59606;52.138;5.424;2022-07-18T06:20:02;14.43;;;4.80;;
71771;SDS011;59606;52.138;5.424;2022-07-18T06:22:31;11.15;;;4.97;;
71771;SDS011;59606;52.138;5.424;2022-07-18T06:24:58;11.40;;;4.95;;
71771;SDS011;59606;52.138;5.424;2022-07-18T06:27:24;11.60;;;4.47;;
71771;SDS011;59606;52.138;5.424;2022-07-18T06:29:51;8.80;;;4.73;;
71771;SDS011;59606;52.138;5.424;2022-07-18T06:32:17;11.00;;;5.05;;
71771;SDS011;59606;52.138;5.424;2022-07-18T06:34:44;10.75;;;4.75;;
71771;SDS011;59606;52.138;5.424;2022-07-18T06:37:11;10.70;;;4.82;;
71771;SDS011;59606;52.138;5.424;2022-07-18T06:39:37;12.25;;;5.15;;
71771;SDS011;59606;52.138;5.424;2022-07-18T06:42:04;14.17;;;5.30;;
71771;SDS011;59606;52.138;5.424;2022-07-18T06:44:30;14.52;;;4.88;;
71771;SDS011;59606;52.138;5.424;2022-07-18T06:46:57;11.45;;;4.65;;
71771;SDS011;59606;52.138;5.424;2022-07-18T06:49:25;10.15;;;4.70;;
71771;SDS011;59606;52.138;5.424;2022-07-18T06:51:52;13.52;;;5.43;;
71771;SDS011;59606;52.138;5.424;2022-07-18T06:54:19;11.87;;;4.70;;
71771;SDS011;59606;52.138;5.424;2022-07-18T06:56:46;11.35;;;4.32;;
71771;SDS011;59606;52.138;5.424;2022-07-18T06:59:12;9.65;;;3.88;;
71771;SDS011;59606;52.138;5.424;2022-07-18T07:01:39;8.63;;;4.13;;
71771;SDS011;59606;52.138;5.424;2022-07-18T07:04:06;8.52;;;3.67;;
71771;SDS011;59606;52.138;5.424;2022-07-18T07:06:32;10.57;;;4.20;;
71771;SDS011;59606;52.138;5.424;2022-07-18T07:08:59;11.20;;;3.78;;
71771;SDS011;59606;52.138;5.424;2022-07-18T07:11:25;8.38;;;3.92;;
71771;SDS011;59606;52.138;5.424;2022-07-18T07:13:51;9.63;;;3.55;;
71771;SDS011;59606;52.138;5.424;2022-07-18T07:16:18;10.57;;;3.63;;
71771;SDS011;59606;52.138;5.424;2022-07-18T07:18:45;10.17;;;3.47;;
71771;SDS011;59606;52.138;5.424;2022-07-18T07:21:11;10.98;;;3.35;;
71771;SDS011;59606;52.138;5.424;2022-07-18T07:23:45;5.47;;;2.78;;
71771;SDS011;59606;52.138;5.424;2022-07-18T07:26:11;14.65;;;3.10;;
71771;SDS011;59606;52.138;5.424;2022-07-18T07:28:38;6.50;;;2.97;;
71771;SDS011;59606;52.138;5.424;2022-07-18T07:31:04;9.03;;;3.17;;
71771;SDS011;59606;52.138;5.424;2022-07-18T07:33:32;7.38;;;2.85;;
71771;SDS011;59606;52.138;5.424;2022-07-18T07:35:59;9.02;;;2.95;;
71771;SDS011;59606;52.138;5.424;2022-07-18T07:38:26;6.47;;;2.67;;
71771;SDS011;59606;52.138;5.424;2022-07-18T07:40:55;10.13;;;2.95;;
71771;SDS011;59606;52.138;5.424;2022-07-18T07:43:22;7.37;;;2.30;;
71771;SDS011;59606;52.138;5.424;2022-07-18T07:45:50;11.70;;;2.50;;
71771;SDS011;59606;52.138;5.424;2022-07-18T07:48:19;7.90;;;2.20;;
71771;SDS011;59606;52.138;5.424;2022-07-18T07:50:45;5.88;;;2.00;;
71771;SDS011;59606;52.138;5.424;2022-07-18T07:53:12;6.32;;;2.20;;
71771;SDS011;59606;52.138;5.424;2022-07-18T07:55:39;4.20;;;1.80;;
71771;SDS011;59606;52.138;5.424;2022-07-18T07:58:06;9.68;;;2.17;;
71771;SDS011;59606;52.138;5.424;2022-07-18T08:00:32;4.18;;;1.60;;
71771;SDS011;59606;52.138;5.424;2022-07-18T08:03:03;6.28;;;1.98;;
71771;SDS011;59606;52.138;5.424;2022-07-18T08:05:31;4.78;;;1.73;;
71771;SDS011;59606;52.138;5.424;2022-07-18T08:07:59;5.37;;;1.70;;
71771;SDS011;59606;52.138;5.424;2022-07-18T08:10:28;5.47;;;1.42;;
71771;SDS011;59606;52.138;5.424;2022-07-18T08:12:55;5.97;;;1.75;;
71771;SDS011;59606;52.138;5.424;2022-07-18T08:15:22;8.98;;;1.98;;
71771;SDS011;59606;52.138;5.424;2022-07-18T08:17:50;5.38;;;1.60;;
71771;SDS011;59606;52.138;5.424;2022-07-18T08:20:17;9.73;;;1.50;;
71771;SDS011;59606;52.138;5.424;2022-07-18T08:23:00;5.15;;;1.60;;
71771;SDS011;59606;52.138;5.424;2022-07-18T08:25:29;9.15;;;1.92;;
71771;SDS011;59606;52.138;5.424;2022-07-18T08:27:57;6.35;;;1.50;;
71771;SDS011;59606;52.138;5.424;2022-07-18T08:30:24;3.50;;;1.52;;
71771;SDS011;59606;52.138;5.424;2022-07-18T08:32:51;8.77;;;1.77;;
71771;SDS011;59606;52.138;5.424;2022-07-18T08:35:19;8.50;;;1.88;;
71771;SDS011;59606;52.138;5.424;2022-07-18T08:37:45;12.63;;;2.10;;
71771;SDS011;59606;52.138;5.424;2022-07-18T08:40:12;6.65;;;1.65;;
71771;SDS011;59606;52.138;5.424;2022-07-18T08:42:39;6.88;;;1.77;;
71771;SDS011;59606;52.138;5.424;2022-07-18T08:45:26;12.10;;;2.23;;
71771;SDS011;59606;52.138;5.424;2022-07-18T08:47:53;3.25;;;1.60;;
71771;SDS011;59606;52.138;5.424;2022-07-18T08:50:19;14.82;;;1.95;;
71771;SDS011;59606;52.138;5.424;2022-07-18T08:52:47;6.10;;;1.75;;
71771;SDS011;59606;52.138;5.424;2022-07-18T08:55:20;5.68;;;2.15;;
71771;SDS011;59606;52.138;5.424;2022-07-18T08:57:52;10.60;;;2.13;;
71771;SDS011;59606;52.138;5.424;2022-07-18T09:00:20;5.53;;;2.08;;
71771;SDS011;59606;52.138;5.424;2022-07-18T09:02:57;5.85;;;2.35;;
71771;SDS011;59606;52.138;5.424;2022-07-18T09:05:27;5.55;;;2.38;;
71771;SDS011;59606;52.138;5.424;2022-07-18T09:08:09;8.73;;;1.58;;
71771;SDS011;59606;52.138;5.424;2022-07-18T09:10:54;8.30;;;1.60;;
71771;SDS011;59606;52.138;5.424;2022-07-18T09:13:23;6.32;;;1.45;;
71771;SDS011;59606;52.138;5.424;2022-07-18T09:16:12;16.70;;;1.80;;
71771;SDS011;59606;52.138;5.424;2022-07-18T09:18:44;6.70;;;1.80;;
71771;SDS011;59606;52.138;5.424;2022-07-18T09:21:16;9.50;;;1.50;;
71771;SDS011;59606;52.138;5.424;2022-07-18T09:23:46;3.07;;;1.20;;
71771;SDS011;59606;52.138;5.424;2022-07-18T09:29:04;5.45;;;1.67;;
71771;SDS011;59606;52.138;5.424;2022-07-18T09:31:50;7.40;;;1.63;;
71771;SDS011;59606;52.138;5.424;2022-07-18T09:34:34;5.88;;;1.50;;
71771;SDS011;59606;52.138;5.424;2022-07-18T09:37:02;6.60;;;1.80;;
71771;SDS011;59606;52.138;5.424;2022-07-18T09:39:30;5.93;;;1.30;;
71771;SDS011;59606;52.138;5.424;2022-07-18T09:42:16;6.30;;;1.80;;
71771;SDS011;59606;52.138;5.424;2022-07-18T09:44:59;5.10;;;1.40;;
71771;SDS011;59606;52.138;5.424;2022-07-18T09:47:26;5.70;;;1.80;;
71771;SDS011;59606;52.138;5.424;2022-07-18T09:49:53;6.28;;;1.55;;
71771;SDS011;59606;52.138;5.424;2022-07-18T09:52:20;4.45;;;1.63;;
71771;SDS011;59606;52.138;5.424;2022-07-18T09:54:47;6.05;;;1.85;;
71771;SDS011;59606;52.138;5.424;2022-07-18T09:57:24;9.40;;;2.20;;
71771;SDS011;59606;52.138;5.424;2022-07-18T09:59:52;4.22;;;1.52;;
71771;SDS011;59606;52.138;5.424;2022-07-18T10:02:19;5.27;;;1.77;;
71771;SDS011;59606;52.138;5.424;2022-07-18T10:04:46;4.38;;;1.77;;
71771;SDS011;59606;52.138;5.424;2022-07-18T10:07:13;5.82;;;1.80;;
71771;SDS011;59606;52.138;5.424;2022-07-18T10:09:41;8.00;;;2.20;;
71771;SDS011;59606;52.138;5.424;2022-07-18T10:12:11;5.65;;;2.10;;
71771;SDS011;59606;52.138;5.424;2022-07-18T10:14:40;6.37;;;2.10;;
71771;SDS011;59606;52.138;5.424;2022-07-18T10:17:07;4.18;;;1.85;;
71771;SDS011;59606;52.138;5.424;2022-07-18T10:19:34;5.20;;;2.10;;
71771;SDS011;59606;52.138;5.424;2022-07-18T10:22:01;6.78;;;2.90;;
71771;SDS011;59606;52.138;5.424;2022-07-18T10:24:29;4.20;;;1.80;;
71771;SDS011;59606;52.138;5.424;2022-07-18T10:30:01;5.25;;;1.73;;
71771;SDS011;59606;52.138;5.424;2022-07-18T10:32:34;5.32;;;1.92;;
71771;SDS011;59606;52.138;5.424;2022-07-18T10:35:01;6.53;;;2.17;;
71771;SDS011;59606;52.138;5.424;2022-07-18T10:37:28;3.80;;;1.90;;
71771;SDS011;59606;52.138;5.424;2022-07-18T10:43:30;3.75;;;1.73;;
71771;SDS011;59606;52.138;5.424;2022-07-18T10:45:59;8.30;;;2.53;;
71771;SDS011;59606;52.138;5.424;2022-07-18T10:51:05;7.07;;;1.92;;
71771;SDS011;59606;52.138;5.424;2022-07-18T10:57:03;4.57;;;1.45;;
71771;SDS011;59606;52.138;5.424;2022-07-18T10:59:30;8.55;;;2.00;;
71771;SDS011;59606;52.138;5.424;2022-07-18T11:01:57;12.13;;;1.90;;
71771;SDS011;59606;52.138;5.424;2022-07-18T11:04:32;8.63;;;1.92;;
71771;SDS011;59606;52.138;5.424;2022-07-18T11:07:04;4.63;;;1.70;;
71771;SDS011;59606;52.138;5.424;2022-07-18T11:09:43;5.03;;;1.50;;
71771;SDS011;59606;52.138;5.424;2022-07-18T11:15:06;5.03;;;1.50;;
71771;SDS011;59606;52.138;5.424;2022-07-18T11:23:00;5.43;;;1.63;;
71771;SDS011;59606;52.138;5.424;2022-07-18T11:25:29;3.83;;;1.42;;
71771;SDS011;59606;52.138;5.424;2022-07-18T11:28:15;6.90;;;1.70;;
71771;SDS011;59606;52.138;5.424;2022-07-18T11:30:42;4.47;;;1.57;;
71771;SDS011;59606;52.138;5.424;2022-07-18T11:33:25;6.85;;;2.00;;
71771;SDS011;59606;52.138;5.424;2022-07-18T11:38:31;2.80;;;1.48;;
71771;SDS011;59606;52.138;5.424;2022-07-18T11:40:58;7.93;;;1.80;;
71771;SDS011;59606;52.138;5.424;2022-07-18T11:43:24;8.40;;;1.73;;
71771;SDS011;59606;52.138;5.424;2022-07-18T11:46:02;3.58;;;1.88;;
71771;SDS011;59606;52.138;5.424;2022-07-18T11:48:43;4.90;;;2.00;;
71771;SDS011;59606;52.138;5.424;2022-07-18T11:51:12;4.22;;;1.58;;
71771;SDS011;59606;52.138;5.424;2022-07-18T11:53:50;6.78;;;2.03;;
71771;SDS011;59606;52.138;5.424;2022-07-18T11:56:20;4.40;;;1.98;;
71771;SDS011;59606;52.138;5.424;2022-07-18T11:58:48;8.23;;;1.88;;
71771;SDS011;59606;52.138;5.424;2022-07-18T12:01:16;5.55;;;1.52;;
71771;SDS011;59606;52.138;5.424;2022-07-18T12:03:46;6.60;;;1.80;;
71771;SDS011;59606;52.138;5.424;2022-07-18T12:06:15;4.53;;;1.40;;
71771;SDS011;59606;52.138;5.424;2022-07-18T12:14:01;6.10;;;1.30;;
71771;SDS011;59606;52.138;5.424;2022-07-18T12:19:11;5.60;;;1.75;;
71771;SDS011;59606;52.138;5.424;2022-07-18T12:29:57;4.13;;;1.38;;
71771;SDS011;59606;52.138;5.424;2022-07-18T12:35:23;3.90;;;1.60;;
71771;SDS011;59606;52.138;5.424;2022-07-18T12:37:56;2.63;;;1.67;;
71771;SDS011;59606;52.138;5.424;2022-07-18T12:40:38;4.80;;;1.60;;
71771;SDS011;59606;52.138;5.424;2022-07-18T12:43:12;6.53;;;1.70;;
71771;SDS011;59606;52.138;5.424;2022-07-18T12:45:47;4.88;;;1.65;;
71771;SDS011;59606;52.138;5.424;2022-07-18T12:48:14;4.75;;;2.35;;
71771;SDS011;59606;52.138;5.424;2022-07-18T12:50:41;4.93;;;1.85;;
71771;SDS011;59606;52.138;5.424;2022-07-18T12:53:10;3.75;;;1.60;;
71771;SDS011;59606;52.138;5.424;2022-07-18T12:55:38;5.35;;;1.40;;
71771;SDS011;59606;52.138;5.424;2022-07-18T12:58:06;5.82;;;2.05;;
71771;SDS011;59606;52.138;5.424;2022-07-18T13:00:32;4.77;;;1.70;;
71771;SDS011;59606;52.138;5.424;2022-07-18T13:03:00;6.70;;;1.80;;
71771;SDS011;59606;52.138;5.424;2022-07-18T13:05:27;3.00;;;1.48;;
71771;SDS011;59606;52.138;5.424;2022-07-18T13:07:55;6.95;;;1.65;;
71771;SDS011;59606;52.138;5.424;2022-07-18T13:10:21;4.43;;;1.63;;
71771;SDS011;59606;52.138;5.424;2022-07-18T13:12:48;5.47;;;1.40;;
71771;SDS011;59606;52.138;5.424;2022-07-18T13:15:15;4.05;;;1.60;;
71771;SDS011;59606;52.138;5.424;2022-07-18T13:17:41;6.38;;;1.70;;
71771;SDS011;59606;52.138;5.424;2022-07-18T13:20:08;2.55;;;1.55;;
71771;SDS011;59606;52.138;5.424;2022-07-18T13:22:35;4.18;;;1.52;;
71771;SDS011;59606;52.138;5.424;2022-07-18T13:25:05;6.10;;;1.57;;
71771;SDS011;59606;52.138;5.424;2022-07-18T13:27:33;8.05;;;1.90;;
71771;SDS011;59606;52.138;5.424;2022-07-18T13:30:00;3.75;;;1.60;;
71771;SDS011;59606;52.138;5.424;2022-07-18T13:32:28;3.47;;;1.50;;
71771;SDS011;59606;52.138;5.424;2022-07-18T13:34:55;3.92;;;1.60;;
71771;SDS011;59606;52.138;5.424;2022-07-18T13:37:22;6.17;;;1.60;;
71771;SDS011;59606;52.138;5.424;2022-07-18T13:39:49;4.57;;;1.60;;
71771;SDS011;59606;52.138;5.424;2022-07-18T13:42:15;5.65;;;1.75;;
71771;SDS011;59606;52.138;5.424;2022-07-18T13:44:42;3.63;;;1.83;;
71771;SDS011;59606;52.138;5.424;2022-07-18T13:47:12;5.38;;;2.08;;
71771;SDS011;59606;52.138;5.424;2022-07-18T13:49:39;3.30;;;1.60;;
71771;SDS011;59606;52.138;5.424;2022-07-18T13:52:05;4.38;;;1.45;;
71771;SDS011;59606;52.138;5.424;2022-07-18T13:54:36;5.15;;;2.28;;
71771;SDS011;59606;52.138;5.424;2022-07-18T13:57:02;4.38;;;1.25;;
71771;SDS011;59606;52.138;5.424;2022-07-18T13:59:29;3.47;;;1.52;;
71771;SDS011;59606;52.138;5.424;2022-07-18T14:01:55;7.13;;;1.87;;
71771;SDS011;59606;52.138;5.424;2022-07-18T14:04:22;4.55;;;1.67;;
71771;SDS011;59606;52.138;5.424;2022-07-18T14:06:49;3.63;;;1.45;;
71771;SDS011;59606;52.138;5.424;2022-07-18T14:09:15;5.75;;;1.92;;
71771;SDS011;59606;52.138;5.424;2022-07-18T14:11:42;2.95;;;1.48;;
71771;SDS011;59606;52.138;5.424;2022-07-18T14:14:08;3.07;;;2.03;;
71771;SDS011;59606;52.138;5.424;2022-07-18T14:16:35;4.22;;;1.50;;
71771;SDS011;59606;52.138;5.424;2022-07-18T14:19:04;3.83;;;1.52;;
71771;SDS011;59606;52.138;5.424;2022-07-18T14:21:30;4.35;;;1.60;;
71771;SDS011;59606;52.138;5.424;2022-07-18T14:23:57;3.75;;;1.60;;
71771;SDS011;59606;52.138;5.424;2022-07-18T14:26:24;4.73;;;1.40;;
71771;SDS011;59606;52.138;5.424;2022-07-18T14:28:52;5.50;;;1.15;;
71771;SDS011;59606;52.138;5.424;2022-07-18T14:31:19;3.28;;;1.52;;
71771;SDS011;59606;52.138;5.424;2022-07-18T14:33:45;4.13;;;1.40;;
71771;SDS011;59606;52.138;5.424;2022-07-18T14:36:14;4.25;;;1.63;;
71771;SDS011;59606;52.138;5.424;2022-07-18T14:38:42;3.97;;;1.50;;
71771;SDS011;59606;52.138;5.424;2022-07-18T14:41:09;5.75;;;1.60;;
71771;SDS011;59606;52.138;5.424;2022-07-18T14:43:36;5.75;;;1.52;;
71771;SDS011;59606;52.138;5.424;2022-07-18T14:46:02;3.75;;;1.67;;
71771;SDS011;59606;52.138;5.424;2022-07-18T14:48:30;4.03;;;1.50;;
71771;SDS011;59606;52.138;5.424;2022-07-18T14:50:57;3.63;;;1.40;;
71771;SDS011;59606;52.138;5.424;2022-07-18T14:53:24;7.22;;;1.85;;
71771;SDS011;59606;52.138;5.424;2022-07-18T14:55:50;4.47;;;1.60;;
71771;SDS011;59606;52.138;5.424;2022-07-18T14:58:17;4.05;;;1.58;;
71771;SDS011;59606;52.138;5.424;2022-07-18T15:00:45;4.28;;;1.48;;
71771;SDS011;59606;52.138;5.424;2022-07-18T15:03:11;3.20;;;1.63;;
71771;SDS011;59606;52.138;5.424;2022-07-18T15:05:58;3.85;;;1.60;;
71771;SDS011;59606;52.138;5.424;2022-07-18T15:08:24;3.78;;;1.55;;
71771;SDS011;59606;52.138;5.424;2022-07-18T15:10:51;5.65;;;1.48;;
71771;SDS011;59606;52.138;5.424;2022-07-18T15:13:17;4.10;;;1.50;;
71771;SDS011;59606;52.138;5.424;2022-07-18T15:15:44;3.00;;;1.47;;
71771;SDS011;59606;52.138;5.424;2022-07-18T15:18:14;4.97;;;1.55;;
71771;SDS011;59606;52.138;5.424;2022-07-18T15:20:40;5.28;;;1.77;;
71771;SDS011;59606;52.138;5.424;2022-07-18T15:23:10;4.47;;;1.42;;
71771;SDS011;59606;52.138;5.424;2022-07-18T15:25:37;3.70;;;1.60;;
71771;SDS011;59606;52.138;5.424;2022-07-18T15:28:03;2.73;;;1.50;;
71771;SDS011;59606;52.138;5.424;2022-07-18T15:30:30;2.97;;;1.58;;
71771;SDS011;59606;52.138;5.424;2022-07-18T15:33:11;3.00;;;1.40;;
71771;SDS011;59606;52.138;5.424;2022-07-18T15:35:38;3.35;;;1.48;;